sensor_id;sensor_type;location;lat;lon;timestamp;P1;durP1;ratioP1;P2;durP2;ratioP2
8312;SDS011;4194;43.408;24.626;2023-02-22T00:00:37;3.20;;;2.47;;
8312;SDS011;4194;43.408;24.626;2023-02-22T00:03:08;3.77;;;3.07;;
8312;SDS011;4194;43.408;24.626;2023-02-22T00:05:35;5.83;;;2.60;;
8312;SDS011;4194;43.408;24.626;2023-02-22T00:08:03;2.90;;;2.43;;
8312;SDS011;4194;43.408;24.626;2023-02-22T00:10:33;3.33;;;2.70;;
8312;SDS011;4194;43.408;24.626;2023-02-22T00:13:02;4.67;;;2.50;;
8312;SDS011;4194;43.408;24.626;2023-02-22T00:15:29;7.53;;;2.60;;
8312;SDS011;4194;43.408;24.626;2023-02-22T00:17:57;3.83;;;2.57;;
8312;SDS011;4194;43.408;24.626;2023-02-22T00:20:24;3.10;;;2.77;;
8312;SDS011;4194;43.408;24.626;2023-02-22T00:22:50;3.63;;;2.50;;
8312;SDS011;4194;43.408;24.626;2023-02-22T00:25:20;4.03;;;2.47;;
8312;SDS011;4194;43.408;24.626;2023-02-22T00:27:46;4.90;;;2.50;;
8312;SDS011;4194;43.408;24.626;2023-02-22T00:30:14;4.23;;;2.83;;
8312;SDS011;4194;43.408;24.626;2023-02-22T00:32:43;4.40;;;2.60;;
8312;SDS011;4194;43.408;24.626;2023-02-22T00:35:13;2.83;;;2.30;;
8312;SDS011;4194;43.408;24.626;2023-02-22T00:37:40;2.27;;;1.77;;
8312;SDS011;4194;43.408;24.626;2023-02-22T00:40:09;2.80;;;2.10;;
8312;SDS011;4194;43.408;24.626;2023-02-22T00:42:35;4.53;;;2.10;;
8312;SDS011;4194;43.408;24.626;2023-02-22T00:45:02;2.83;;;2.10;;
8312;SDS011;4194;43.408;24.626;2023-02-22T00:47:29;3.23;;;2.53;;
8312;SDS011;4194;43.408;24.626;2023-02-22T00:49:55;4.43;;;2.40;;
8312;SDS011;4194;43.408;24.626;2023-02-22T00:52:21;3.73;;;2.23;;
8312;SDS011;4194;43.408;24.626;2023-02-22T00:54:46;3.57;;;2.17;;
8312;SDS011;4194;43.408;24.626;2023-02-22T00:57:12;5.13;;;2.47;;
8312;SDS011;4194;43.408;24.626;2023-02-22T00:59:38;2.60;;;2.20;;
8312;SDS011;4194;43.408;24.626;2023-02-22T01:02:03;6.43;;;2.30;;
8312;SDS011;4194;43.408;24.626;2023-02-22T01:04:29;2.77;;;2.03;;
8312;SDS011;4194;43.408;24.626;2023-02-22T01:06:55;4.47;;;2.03;;
8312;SDS011;4194;43.408;24.626;2023-02-22T01:09:22;2.53;;;2.10;;
8312;SDS011;4194;43.408;24.626;2023-02-22T01:11:51;2.47;;;2.13;;
8312;SDS011;4194;43.408;24.626;2023-02-22T01:14:21;4.40;;;2.10;;
8312;SDS011;4194;43.408;24.626;2023-02-22T01:16:50;2.57;;;2.07;;
8312;SDS011;4194;43.408;24.626;2023-02-22T01:19:16;3.73;;;2.20;;
8312;SDS011;4194;43.408;24.626;2023-02-22T01:21:42;4.23;;;2.07;;
8312;SDS011;4194;43.408;24.626;2023-02-22T01:24:08;3.37;;;2.30;;
8312;SDS011;4194;43.408;24.626;2023-02-22T01:26:34;2.70;;;2.00;;
8312;SDS011;4194;43.408;24.626;2023-02-22T01:28:59;2.40;;;2.07;;
8312;SDS011;4194;43.408;24.626;2023-02-22T01:31:25;2.47;;;1.90;;
8312;SDS011;4194;43.408;24.626;2023-02-22T01:33:51;2.27;;;1.90;;
8312;SDS011;4194;43.408;24.626;2023-02-22T01:36:17;2.90;;;2.00;;
8312;SDS011;4194;43.408;24.626;2023-02-22T01:38:43;5.97;;;2.50;;
8312;SDS011;4194;43.408;24.626;2023-02-22T01:41:10;2.20;;;1.97;;
8312;SDS011;4194;43.408;24.626;2023-02-22T01:43:37;5.83;;;2.03;;
8312;SDS011;4194;43.408;24.626;2023-02-22T01:46:24;4.70;;;1.63;;
8312;SDS011;4194;43.408;24.626;2023-02-22T01:48:56;3.13;;;1.77;;
8312;SDS011;4194;43.408;24.626;2023-02-22T01:51:30;2.33;;;1.67;;
8312;SDS011;4194;43.408;24.626;2023-02-22T01:56:57;2.70;;;1.73;;
8312;SDS011;4194;43.408;24.626;2023-02-22T01:59:24;6.60;;;2.80;;
8312;SDS011;4194;43.408;24.626;2023-02-22T02:01:52;5.10;;;2.60;;
8312;SDS011;4194;43.408;24.626;2023-02-22T02:04:19;4.87;;;2.03;;
8312;SDS011;4194;43.408;24.626;2023-02-22T02:06:53;2.47;;;2.10;;
8312;SDS011;4194;43.408;24.626;2023-02-22T02:11:58;3.00;;;2.50;;
8312;SDS011;4194;43.408;24.626;2023-02-22T02:14:26;2.57;;;1.70;;
8312;SDS011;4194;43.408;24.626;2023-02-22T02:16:55;2.33;;;1.77;;
8312;SDS011;4194;43.408;24.626;2023-02-22T02:27:19;2.70;;;1.67;;
8312;SDS011;4194;43.408;24.626;2023-02-22T02:32:23;2.40;;;1.83;;
8312;SDS011;4194;43.408;24.626;2023-02-22T02:35:05;4.93;;;1.80;;
8312;SDS011;4194;43.408;24.626;2023-02-22T02:37:55;3.77;;;2.07;;
8312;SDS011;4194;43.408;24.626;2023-02-22T02:43:27;2.53;;;1.93;;
8312;SDS011;4194;43.408;24.626;2023-02-22T02:48:30;2.63;;;1.97;;
8312;SDS011;4194;43.408;24.626;2023-02-22T02:50:59;4.97;;;2.00;;
8312;SDS011;4194;43.408;24.626;2023-02-22T02:53:31;4.50;;;3.03;;
8312;SDS011;4194;43.408;24.626;2023-02-22T02:55:58;3.03;;;1.80;;
8312;SDS011;4194;43.408;24.626;2023-02-22T02:58:24;3.43;;;2.03;;
8312;SDS011;4194;43.408;24.626;2023-02-22T03:00:51;2.37;;;1.90;;
8312;SDS011;4194;43.408;24.626;2023-02-22T03:06:07;3.00;;;2.30;;
8312;SDS011;4194;43.408;24.626;2023-02-22T03:09:24;5.37;;;2.20;;
8312;SDS011;4194;43.408;24.626;2023-02-22T03:11:36;2.93;;;2.00;;
8312;SDS011;4194;43.408;24.626;2023-02-22T03:17:27;5.50;;;2.50;;
8312;SDS011;4194;43.408;24.626;2023-02-22T03:20:28;3.17;;;2.70;;
8312;SDS011;4194;43.408;24.626;2023-02-22T03:23:13;4.83;;;2.70;;
8312;SDS011;4194;43.408;24.626;2023-02-22T03:25:45;6.60;;;3.73;;
8312;SDS011;4194;43.408;24.626;2023-02-22T03:28:16;13.93;;;5.90;;
8312;SDS011;4194;43.408;24.626;2023-02-22T03:30:45;17.10;;;10.27;;
8312;SDS011;4194;43.408;24.626;2023-02-22T03:33:16;17.60;;;7.93;;
8312;SDS011;4194;43.408;24.626;2023-02-22T03:35:53;17.37;;;7.90;;
8312;SDS011;4194;43.408;24.626;2023-02-22T03:38:24;20.67;;;9.37;;
8312;SDS011;4194;43.408;24.626;2023-02-22T03:40:53;31.33;;;11.03;;
8312;SDS011;4194;43.408;24.626;2023-02-22T03:43:24;26.13;;;9.40;;
8312;SDS011;4194;43.408;24.626;2023-02-22T03:45:55;14.23;;;6.07;;
8312;SDS011;4194;43.408;24.626;2023-02-22T03:48:25;12.23;;;5.67;;
8312;SDS011;4194;43.408;24.626;2023-02-22T03:51:08;8.10;;;4.13;;
8312;SDS011;4194;43.408;24.626;2023-02-22T03:53:38;8.47;;;3.23;;
8312;SDS011;4194;43.408;24.626;2023-02-22T03:56:06;5.43;;;2.50;;
8312;SDS011;4194;43.408;24.626;2023-02-22T03:58:36;5.43;;;2.90;;
8312;SDS011;4194;43.408;24.626;2023-02-22T04:01:03;10.27;;;3.20;;
8312;SDS011;4194;43.408;24.626;2023-02-22T04:03:29;5.97;;;2.70;;
8312;SDS011;4194;43.408;24.626;2023-02-22T04:05:55;4.17;;;2.50;;
8312;SDS011;4194;43.408;24.626;2023-02-22T04:08:21;7.07;;;3.00;;
8312;SDS011;4194;43.408;24.626;2023-02-22T04:10:46;6.47;;;3.10;;
8312;SDS011;4194;43.408;24.626;2023-02-22T04:13:12;4.37;;;3.20;;
8312;SDS011;4194;43.408;24.626;2023-02-22T04:15:38;4.53;;;2.93;;
8312;SDS011;4194;43.408;24.626;2023-02-22T04:18:04;7.70;;;3.47;;
8312;SDS011;4194;43.408;24.626;2023-02-22T04:20:30;5.50;;;2.97;;
8312;SDS011;4194;43.408;24.626;2023-02-22T04:22:55;5.27;;;2.80;;
8312;SDS011;4194;43.408;24.626;2023-02-22T04:25:21;3.73;;;2.60;;
8312;SDS011;4194;43.408;24.626;2023-02-22T04:27:48;6.57;;;3.10;;
8312;SDS011;4194;43.408;24.626;2023-02-22T04:30:15;6.30;;;2.97;;
8312;SDS011;4194;43.408;24.626;2023-02-22T04:32:42;4.20;;;2.67;;
8312;SDS011;4194;43.408;24.626;2023-02-22T04:35:08;7.00;;;3.03;;
8312;SDS011;4194;43.408;24.626;2023-02-22T04:37:33;6.50;;;3.37;;
8312;SDS011;4194;43.408;24.626;2023-02-22T04:40:03;8.50;;;3.37;;
8312;SDS011;4194;43.408;24.626;2023-02-22T04:42:33;5.00;;;3.63;;
8312;SDS011;4194;43.408;24.626;2023-02-22T04:45:00;8.43;;;3.73;;
8312;SDS011;4194;43.408;24.626;2023-02-22T04:47:26;10.83;;;4.27;;
8312;SDS011;4194;43.408;24.626;2023-02-22T04:49:51;8.00;;;4.20;;
8312;SDS011;4194;43.408;24.626;2023-02-22T04:52:17;9.00;;;4.27;;
8312;SDS011;4194;43.408;24.626;2023-02-22T04:54:43;7.90;;;4.13;;
8312;SDS011;4194;43.408;24.626;2023-02-22T04:57:09;8.07;;;4.07;;
8312;SDS011;4194;43.408;24.626;2023-02-22T04:59:35;10.57;;;4.33;;
8312;SDS011;4194;43.408;24.626;2023-02-22T05:02:01;13.23;;;5.37;;
8312;SDS011;4194;43.408;24.626;2023-02-22T05:04:27;11.13;;;4.80;;
8312;SDS011;4194;43.408;24.626;2023-02-22T05:06:52;7.20;;;4.23;;
8312;SDS011;4194;43.408;24.626;2023-02-22T05:09:18;10.20;;;4.03;;
8312;SDS011;4194;43.408;24.626;2023-02-22T05:11:44;5.03;;;3.67;;
8312;SDS011;4194;43.408;24.626;2023-02-22T05:14:10;10.70;;;4.63;;
8312;SDS011;4194;43.408;24.626;2023-02-22T05:16:36;7.27;;;4.00;;
8312;SDS011;4194;43.408;24.626;2023-02-22T05:19:02;9.73;;;4.37;;
8312;SDS011;4194;43.408;24.626;2023-02-22T05:21:28;10.20;;;4.40;;
8312;SDS011;4194;43.408;24.626;2023-02-22T05:23:54;8.60;;;4.30;;
8312;SDS011;4194;43.408;24.626;2023-02-22T05:26:21;9.77;;;3.90;;
8312;SDS011;4194;43.408;24.626;2023-02-22T05:28:47;9.47;;;4.23;;
8312;SDS011;4194;43.408;24.626;2023-02-22T05:31:13;8.37;;;4.00;;
8312;SDS011;4194;43.408;24.626;2023-02-22T05:33:39;8.40;;;4.35;;
8312;SDS011;4194;43.408;24.626;2023-02-22T05:36:05;8.73;;;4.00;;
8312;SDS011;4194;43.408;24.626;2023-02-22T05:38:31;11.30;;;4.27;;
8312;SDS011;4194;43.408;24.626;2023-02-22T05:40:58;8.77;;;4.20;;
8312;SDS011;4194;43.408;24.626;2023-02-22T05:43:24;12.40;;;5.43;;
8312;SDS011;4194;43.408;24.626;2023-02-22T05:45:50;9.23;;;5.43;;
8312;SDS011;4194;43.408;24.626;2023-02-22T05:48:16;10.47;;;4.67;;
8312;SDS011;4194;43.408;24.626;2023-02-22T05:50:42;14.70;;;5.93;;
8312;SDS011;4194;43.408;24.626;2023-02-22T05:53:08;14.27;;;6.37;;
8312;SDS011;4194;43.408;24.626;2023-02-22T05:55:34;15.43;;;6.67;;
8312;SDS011;4194;43.408;24.626;2023-02-22T05:57:59;18.03;;;7.60;;
8312;SDS011;4194;43.408;24.626;2023-02-22T06:00:27;18.83;;;6.90;;
8312;SDS011;4194;43.408;24.626;2023-02-22T06:03:01;17.80;;;7.03;;
8312;SDS011;4194;43.408;24.626;2023-02-22T06:05:29;19.87;;;7.50;;
8312;SDS011;4194;43.408;24.626;2023-02-22T06:07:55;13.90;;;7.77;;
8312;SDS011;4194;43.408;24.626;2023-02-22T06:10:21;15.50;;;7.80;;
8312;SDS011;4194;43.408;24.626;2023-02-22T06:12:47;17.67;;;8.03;;
8312;SDS011;4194;43.408;24.626;2023-02-22T06:15:16;21.57;;;6.67;;
8312;SDS011;4194;43.408;24.626;2023-02-22T06:17:43;18.53;;;6.83;;
8312;SDS011;4194;43.408;24.626;2023-02-22T06:20:10;16.57;;;7.73;;
8312;SDS011;4194;43.408;24.626;2023-02-22T06:22:37;14.53;;;7.57;;
8312;SDS011;4194;43.408;24.626;2023-02-22T06:25:05;13.50;;;7.07;;
8312;SDS011;4194;43.408;24.626;2023-02-22T06:27:32;9.83;;;5.87;;
8312;SDS011;4194;43.408;24.626;2023-02-22T06:29:58;10.13;;;6.20;;
8312;SDS011;4194;43.408;24.626;2023-02-22T06:32:25;14.10;;;6.17;;
8312;SDS011;4194;43.408;24.626;2023-02-22T06:34:51;16.23;;;5.67;;
8312;SDS011;4194;43.408;24.626;2023-02-22T06:37:17;11.80;;;5.47;;
8312;SDS011;4194;43.408;24.626;2023-02-22T06:39:42;8.63;;;5.37;;
8312;SDS011;4194;43.408;24.626;2023-02-22T06:42:08;10.63;;;5.27;;
8312;SDS011;4194;43.408;24.626;2023-02-22T06:44:34;11.23;;;5.00;;
8312;SDS011;4194;43.408;24.626;2023-02-22T06:47:00;13.27;;;4.83;;
8312;SDS011;4194;43.408;24.626;2023-02-22T06:49:26;11.33;;;4.80;;
8312;SDS011;4194;43.408;24.626;2023-02-22T06:51:52;11.90;;;4.67;;
8312;SDS011;4194;43.408;24.626;2023-02-22T06:54:18;7.20;;;4.67;;
8312;SDS011;4194;43.408;24.626;2023-02-22T06:56:44;9.10;;;4.87;;
8312;SDS011;4194;43.408;24.626;2023-02-22T06:59:10;9.63;;;5.50;;
8312;SDS011;4194;43.408;24.626;2023-02-22T07:01:35;7.90;;;4.50;;
8312;SDS011;4194;43.408;24.626;2023-02-22T07:04:04;10.50;;;5.40;;
8312;SDS011;4194;43.408;24.626;2023-02-22T07:06:30;7.33;;;5.17;;
8312;SDS011;4194;43.408;24.626;2023-02-22T07:08:55;5.03;;;3.17;;
8312;SDS011;4194;43.408;24.626;2023-02-22T07:11:21;5.80;;;3.50;;
8312;SDS011;4194;43.408;24.626;2023-02-22T07:13:47;5.10;;;3.33;;
8312;SDS011;4194;43.408;24.626;2023-02-22T07:16:12;7.60;;;4.33;;
8312;SDS011;4194;43.408;24.626;2023-02-22T07:18:38;5.90;;;3.63;;
8312;SDS011;4194;43.408;24.626;2023-02-22T07:21:04;6.03;;;3.03;;
8312;SDS011;4194;43.408;24.626;2023-02-22T07:23:30;3.87;;;2.50;;
8312;SDS011;4194;43.408;24.626;2023-02-22T07:25:58;6.27;;;2.63;;
8312;SDS011;4194;43.408;24.626;2023-02-22T07:28:25;5.97;;;2.70;;
8312;SDS011;4194;43.408;24.626;2023-02-22T07:30:51;5.57;;;2.73;;
8312;SDS011;4194;43.408;24.626;2023-02-22T07:33:17;5.17;;;2.13;;
8312;SDS011;4194;43.408;24.626;2023-02-22T07:35:44;2.53;;;1.80;;
8312;SDS011;4194;43.408;24.626;2023-02-22T07:38:12;5.30;;;2.33;;
8312;SDS011;4194;43.408;24.626;2023-02-22T07:40:39;4.10;;;2.60;;
8312;SDS011;4194;43.408;24.626;2023-02-22T07:43:13;2.30;;;2.00;;
8312;SDS011;4194;43.408;24.626;2023-02-22T07:45:39;5.97;;;2.23;;
8312;SDS011;4194;43.408;24.626;2023-02-22T07:48:06;6.93;;;2.80;;
8312;SDS011;4194;43.408;24.626;2023-02-22T07:50:32;5.77;;;2.10;;
8312;SDS011;4194;43.408;24.626;2023-02-22T07:53:00;6.17;;;2.70;;
8312;SDS011;4194;43.408;24.626;2023-02-22T07:55:28;7.13;;;2.80;;
8312;SDS011;4194;43.408;24.626;2023-02-22T07:57:56;3.40;;;2.40;;
8312;SDS011;4194;43.408;24.626;2023-02-22T08:00:25;6.30;;;2.60;;
8312;SDS011;4194;43.408;24.626;2023-02-22T08:02:52;4.27;;;2.70;;
8312;SDS011;4194;43.408;24.626;2023-02-22T08:05:19;2.37;;;2.10;;
8312;SDS011;4194;43.408;24.626;2023-02-22T08:07:47;4.10;;;2.40;;
8312;SDS011;4194;43.408;24.626;2023-02-22T08:10:14;2.73;;;2.13;;
8312;SDS011;4194;43.408;24.626;2023-02-22T08:12:40;4.37;;;2.53;;
8312;SDS011;4194;43.408;24.626;2023-02-22T08:15:07;2.50;;;1.97;;
8312;SDS011;4194;43.408;24.626;2023-02-22T08:17:39;3.23;;;2.30;;
8312;SDS011;4194;43.408;24.626;2023-02-22T08:20:05;3.10;;;2.30;;
8312;SDS011;4194;43.408;24.626;2023-02-22T08:22:31;2.50;;;2.07;;
8312;SDS011;4194;43.408;24.626;2023-02-22T08:24:57;5.53;;;2.40;;
8312;SDS011;4194;43.408;24.626;2023-02-22T08:27:23;5.17;;;2.63;;
8312;SDS011;4194;43.408;24.626;2023-02-22T08:29:50;3.17;;;1.90;;
8312;SDS011;4194;43.408;24.626;2023-02-22T08:32:15;2.23;;;2.03;;
8312;SDS011;4194;43.408;24.626;2023-02-22T08:34:41;2.93;;;2.47;;
8312;SDS011;4194;43.408;24.626;2023-02-22T08:37:08;5.23;;;2.10;;
8312;SDS011;4194;43.408;24.626;2023-02-22T08:39:35;2.70;;;2.13;;
8312;SDS011;4194;43.408;24.626;2023-02-22T08:42:01;3.40;;;2.30;;
8312;SDS011;4194;43.408;24.626;2023-02-22T08:44:27;4.20;;;2.30;;
8312;SDS011;4194;43.408;24.626;2023-02-22T08:46:53;4.77;;;2.43;;
8312;SDS011;4194;43.408;24.626;2023-02-22T08:49:20;4.33;;;2.07;;
8312;SDS011;4194;43.408;24.626;2023-02-22T08:51:46;2.43;;;1.80;;
8312;SDS011;4194;43.408;24.626;2023-02-22T08:54:15;4.47;;;1.80;;
8312;SDS011;4194;43.408;24.626;2023-02-22T08:56:42;3.83;;;2.07;;
8312;SDS011;4194;43.408;24.626;2023-02-22T08:59:09;7.33;;;2.20;;
8312;SDS011;4194;43.408;24.626;2023-02-22T09:01:35;3.57;;;1.97;;
8312;SDS011;4194;43.408;24.626;2023-02-22T09:04:03;2.63;;;2.00;;
8312;SDS011;4194;43.408;24.626;2023-02-22T09:06:29;4.57;;;2.30;;
8312;SDS011;4194;43.408;24.626;2023-02-22T09:08:55;2.33;;;1.67;;
8312;SDS011;4194;43.408;24.626;2023-02-22T09:11:22;4.60;;;2.40;;
8312;SDS011;4194;43.408;24.626;2023-02-22T09:13:47;2.80;;;1.80;;
8312;SDS011;4194;43.408;24.626;2023-02-22T09:16:13;6.73;;;2.80;;
8312;SDS011;4194;43.408;24.626;2023-02-22T09:18:43;3.80;;;2.37;;
8312;SDS011;4194;43.408;24.626;2023-02-22T09:21:09;2.07;;;1.93;;
8312;SDS011;4194;43.408;24.626;2023-02-22T09:23:36;2.47;;;2.17;;
8312;SDS011;4194;43.408;24.626;2023-02-22T09:26:02;7.17;;;2.50;;
8312;SDS011;4194;43.408;24.626;2023-02-22T09:28:28;2.50;;;2.30;;
8312;SDS011;4194;43.408;24.626;2023-02-22T09:30:57;5.47;;;2.37;;
8312;SDS011;4194;43.408;24.626;2023-02-22T09:33:25;4.70;;;1.70;;
8312;SDS011;4194;43.408;24.626;2023-02-22T09:35:50;4.23;;;2.00;;
8312;SDS011;4194;43.408;24.626;2023-02-22T09:38:26;3.53;;;2.90;;
8312;SDS011;4194;43.408;24.626;2023-02-22T09:41:07;3.23;;;2.33;;
8312;SDS011;4194;43.408;24.626;2023-02-22T09:46:32;2.07;;;1.60;;
8312;SDS011;4194;43.408;24.626;2023-02-22T09:57:08;6.40;;;2.10;;
8312;SDS011;4194;43.408;24.626;2023-02-22T09:59:45;2.57;;;1.90;;
8312;SDS011;4194;43.408;24.626;2023-02-22T10:02:22;2.10;;;1.90;;
8312;SDS011;4194;43.408;24.626;2023-02-22T10:04:53;2.17;;;1.70;;
8312;SDS011;4194;43.408;24.626;2023-02-22T10:07:30;4.03;;;2.07;;
8312;SDS011;4194;43.408;24.626;2023-02-22T10:09:58;4.97;;;2.27;;
8312;SDS011;4194;43.408;24.626;2023-02-22T10:15:29;3.07;;;1.93;;
8312;SDS011;4194;43.408;24.626;2023-02-22T10:21:00;3.57;;;2.00;;
8312;SDS011;4194;43.408;24.626;2023-02-22T10:23:59;1.70;;;1.60;;
8312;SDS011;4194;43.408;24.626;2023-02-22T10:26:50;3.43;;;1.40;;
8312;SDS011;4194;43.408;24.626;2023-02-22T10:31:59;2.93;;;1.67;;
8312;SDS011;4194;43.408;24.626;2023-02-22T10:34:51;1.77;;;1.60;;
8312;SDS011;4194;43.408;24.626;2023-02-22T10:37:24;2.10;;;1.60;;
8312;SDS011;4194;43.408;24.626;2023-02-22T10:39:57;2.80;;;1.60;;
8312;SDS011;4194;43.408;24.626;2023-02-22T10:42:35;2.50;;;1.50;;
8312;SDS011;4194;43.408;24.626;2023-02-22T10:45:01;3.53;;;1.80;;
8312;SDS011;4194;43.408;24.626;2023-02-22T10:47:27;2.07;;;1.53;;
8312;SDS011;4194;43.408;24.626;2023-02-22T10:49:57;2.77;;;1.90;;
8312;SDS011;4194;43.408;24.626;2023-02-22T10:52:32;3.17;;;1.83;;
8312;SDS011;4194;43.408;24.626;2023-02-22T10:54:59;5.07;;;2.10;;
8312;SDS011;4194;43.408;24.626;2023-02-22T10:57:30;4.07;;;3.67;;
8312;SDS011;4194;43.408;24.626;2023-02-22T11:00:12;5.00;;;3.60;;
8312;SDS011;4194;43.408;24.626;2023-02-22T11:02:38;7.47;;;5.53;;
8312;SDS011;4194;43.408;24.626;2023-02-22T11:05:39;9.07;;;6.10;;
8312;SDS011;4194;43.408;24.626;2023-02-22T11:10:49;7.07;;;5.77;;
8312;SDS011;4194;43.408;24.626;2023-02-22T11:13:24;6.40;;;5.20;;
8312;SDS011;4194;43.408;24.626;2023-02-22T11:15:59;5.70;;;4.50;;
8312;SDS011;4194;43.408;24.626;2023-02-22T11:18:40;3.57;;;2.40;;
8312;SDS011;4194;43.408;24.626;2023-02-22T11:21:07;2.57;;;2.10;;
8312;SDS011;4194;43.408;24.626;2023-02-22T11:23:36;3.87;;;2.07;;
8312;SDS011;4194;43.408;24.626;2023-02-22T11:26:13;2.60;;;2.10;;
8312;SDS011;4194;43.408;24.626;2023-02-22T11:28:51;4.20;;;2.13;;
8312;SDS011;4194;43.408;24.626;2023-02-22T11:31:26;5.43;;;2.40;;
8312;SDS011;4194;43.408;24.626;2023-02-22T11:33:58;2.60;;;2.00;;
8312;SDS011;4194;43.408;24.626;2023-02-22T11:36:35;3.63;;;2.30;;
8312;SDS011;4194;43.408;24.626;2023-02-22T11:39:05;3.13;;;1.73;;
8312;SDS011;4194;43.408;24.626;2023-02-22T11:41:46;3.67;;;2.37;;
8312;SDS011;4194;43.408;24.626;2023-02-22T11:46:46;5.07;;;2.23;;
8312;SDS011;4194;43.408;24.626;2023-02-22T11:49:12;2.27;;;1.80;;
8312;SDS011;4194;43.408;24.626;2023-02-22T12:00:20;1.80;;;1.43;;
8312;SDS011;4194;43.408;24.626;2023-02-22T12:14:29;2.57;;;1.93;;
8312;SDS011;4194;43.408;24.626;2023-02-22T12:19:44;4.77;;;2.07;;
8312;SDS011;4194;43.408;24.626;2023-02-22T12:22:18;4.77;;;2.23;;
8312;SDS011;4194;43.408;24.626;2023-02-22T12:24:52;2.17;;;1.97;;
8312;SDS011;4194;43.408;24.626;2023-02-22T12:27:46;4.87;;;2.30;;
8312;SDS011;4194;43.408;24.626;2023-02-22T12:32:42;2.63;;;2.10;;
8312;SDS011;4194;43.408;24.626;2023-02-22T12:37:56;2.37;;;2.10;;
8312;SDS011;4194;43.408;24.626;2023-02-22T12:40:43;3.10;;;2.40;;
8312;SDS011;4194;43.408;24.626;2023-02-22T12:46:09;3.37;;;2.10;;
8312;SDS011;4194;43.408;24.626;2023-02-22T12:55:03;3.77;;;2.20;;
8312;SDS011;4194;43.408;24.626;2023-02-22T13:03:04;5.07;;;1.77;;
8312;SDS011;4194;43.408;24.626;2023-02-22T13:05:50;2.23;;;1.67;;
8312;SDS011;4194;43.408;24.626;2023-02-22T13:10:56;5.53;;;1.80;;
8312;SDS011;4194;43.408;24.626;2023-02-22T13:13:44;4.40;;;1.93;;
8312;SDS011;4194;43.408;24.626;2023-02-22T13:26:44;2.30;;;1.47;;
8312;SDS011;4194;43.408;24.626;2023-02-22T13:29:16;2.53;;;1.57;;
8312;SDS011;4194;43.408;24.626;2023-02-22T13:34:30;3.53;;;1.73;;
8312;SDS011;4194;43.408;24.626;2023-02-22T13:56:20;2.23;;;1.77;;
8312;SDS011;4194;43.408;24.626;2023-02-22T13:59:22;4.83;;;2.50;;
8312;SDS011;4194;43.408;24.626;2023-02-22T14:01:59;1.97;;;1.73;;
8312;SDS011;4194;43.408;24.626;2023-02-22T14:06:57;2.63;;;2.43;;
8312;SDS011;4194;43.408;24.626;2023-02-22T14:17:35;2.93;;;2.43;;
8312;SDS011;4194;43.408;24.626;2023-02-22T14:20:02;3.40;;;2.10;;
8312;SDS011;4194;43.408;24.626;2023-02-22T14:22:48;2.90;;;2.00;;
8312;SDS011;4194;43.408;24.626;2023-02-22T14:28:08;3.33;;;1.90;;
8312;SDS011;4194;43.408;24.626;2023-02-22T14:31:24;3.13;;;2.17;;
8312;SDS011;4194;43.408;24.626;2023-02-22T14:34:01;2.13;;;1.90;;
8312;SDS011;4194;43.408;24.626;2023-02-22T14:36:35;3.17;;;2.60;;
8312;SDS011;4194;43.408;24.626;2023-02-22T14:42:01;3.30;;;2.60;;
8312;SDS011;4194;43.408;24.626;2023-02-22T14:47:43;8.07;;;2.53;;
8312;SDS011;4194;43.408;24.626;2023-02-22T14:50:42;3.50;;;2.60;;
8312;SDS011;4194;43.408;24.626;2023-02-22T14:56:21;3.93;;;2.70;;
8312;SDS011;4194;43.408;24.626;2023-02-22T14:59:18;6.87;;;3.43;;
8312;SDS011;4194;43.408;24.626;2023-02-22T15:01:45;4.13;;;3.03;;
8312;SDS011;4194;43.408;24.626;2023-02-22T15:06:54;10.00;;;3.90;;
8312;SDS011;4194;43.408;24.626;2023-02-22T15:09:22;3.73;;;3.10;;
8312;SDS011;4194;43.408;24.626;2023-02-22T15:11:50;3.77;;;3.33;;
8312;SDS011;4194;43.408;24.626;2023-02-22T15:14:42;7.50;;;3.40;;
8312;SDS011;4194;43.408;24.626;2023-02-22T15:17:19;5.33;;;3.80;;
8312;SDS011;4194;43.408;24.626;2023-02-22T15:19:46;6.37;;;4.00;;
8312;SDS011;4194;43.408;24.626;2023-02-22T15:22:33;8.33;;;3.90;;
8312;SDS011;4194;43.408;24.626;2023-02-22T15:25:01;5.93;;;3.80;;
8312;SDS011;4194;43.408;24.626;2023-02-22T15:27:32;4.60;;;3.27;;
8312;SDS011;4194;43.408;24.626;2023-02-22T15:30:23;3.60;;;3.10;;
8312;SDS011;4194;43.408;24.626;2023-02-22T15:32:50;4.67;;;3.33;;
8312;SDS011;4194;43.408;24.626;2023-02-22T15:35:18;5.00;;;3.10;;
8312;SDS011;4194;43.408;24.626;2023-02-22T15:38:00;4.57;;;3.27;;
8312;SDS011;4194;43.408;24.626;2023-02-22T15:40:28;5.07;;;3.40;;
8312;SDS011;4194;43.408;24.626;2023-02-22T15:42:57;4.60;;;3.20;;
8312;SDS011;4194;43.408;24.626;2023-02-22T15:45:26;4.50;;;2.40;;
8312;SDS011;4194;43.408;24.626;2023-02-22T15:47:52;4.93;;;2.47;;
8312;SDS011;4194;43.408;24.626;2023-02-22T15:52:53;5.13;;;2.60;;
8312;SDS011;4194;43.408;24.626;2023-02-22T15:55:36;3.80;;;2.33;;
8312;SDS011;4194;43.408;24.626;2023-02-22T15:58:09;2.97;;;2.50;;
8312;SDS011;4194;43.408;24.626;2023-02-22T16:00:37;5.03;;;2.60;;
8312;SDS011;4194;43.408;24.626;2023-02-22T16:03:06;4.53;;;3.23;;
8312;SDS011;4194;43.408;24.626;2023-02-22T16:05:38;3.47;;;2.90;;
8312;SDS011;4194;43.408;24.626;2023-02-22T16:08:14;7.83;;;3.70;;
8312;SDS011;4194;43.408;24.626;2023-02-22T16:10:50;7.23;;;3.63;;
8312;SDS011;4194;43.408;24.626;2023-02-22T16:13:23;4.57;;;3.30;;
8312;SDS011;4194;43.408;24.626;2023-02-22T16:15:52;5.87;;;3.47;;
8312;SDS011;4194;43.408;24.626;2023-02-22T16:18:28;12.93;;;3.27;;
8312;SDS011;4194;43.408;24.626;2023-02-22T16:21:00;6.37;;;3.60;;
8312;SDS011;4194;43.408;24.626;2023-02-22T16:23:27;3.90;;;2.57;;
8312;SDS011;4194;43.408;24.626;2023-02-22T16:26:03;8.13;;;3.00;;
8312;SDS011;4194;43.408;24.626;2023-02-22T16:28:46;4.83;;;2.17;;
8312;SDS011;4194;43.408;24.626;2023-02-22T16:31:16;5.90;;;2.87;;
8312;SDS011;4194;43.408;24.626;2023-02-22T16:33:45;14.00;;;4.53;;
8312;SDS011;4194;43.408;24.626;2023-02-22T16:36:11;10.97;;;5.73;;
8312;SDS011;4194;43.408;24.626;2023-02-22T16:38:37;11.00;;;5.37;;
8312;SDS011;4194;43.408;24.626;2023-02-22T16:41:04;8.80;;;5.43;;
8312;SDS011;4194;43.408;24.626;2023-02-22T16:43:31;9.50;;;5.97;;
8312;SDS011;4194;43.408;24.626;2023-02-22T16:45:58;10.47;;;6.00;;
8312;SDS011;4194;43.408;24.626;2023-02-22T16:48:28;21.30;;;9.20;;
8312;SDS011;4194;43.408;24.626;2023-02-22T16:50:58;42.97;;;16.87;;
8312;SDS011;4194;43.408;24.626;2023-02-22T16:53:26;42.60;;;15.33;;
8312;SDS011;4194;43.408;24.626;2023-02-22T16:55:56;32.53;;;14.03;;
8312;SDS011;4194;43.408;24.626;2023-02-22T16:58:26;29.27;;;11.20;;
8312;SDS011;4194;43.408;24.626;2023-02-22T17:00:53;14.77;;;9.40;;
8312;SDS011;4194;43.408;24.626;2023-02-22T17:03:21;22.70;;;9.17;;
8312;SDS011;4194;43.408;24.626;2023-02-22T17:05:48;21.27;;;11.43;;
8312;SDS011;4194;43.408;24.626;2023-02-22T17:08:14;20.37;;;14.03;;
8312;SDS011;4194;43.408;24.626;2023-02-22T17:10:40;27.27;;;15.03;;
8312;SDS011;4194;43.408;24.626;2023-02-22T17:13:07;27.53;;;15.20;;
8312;SDS011;4194;43.408;24.626;2023-02-22T17:15:33;21.83;;;13.70;;
8312;SDS011;4194;43.408;24.626;2023-02-22T17:18:01;21.27;;;12.33;;
8312;SDS011;4194;43.408;24.626;2023-02-22T17:20:41;23.63;;;12.40;;
8312;SDS011;4194;43.408;24.626;2023-02-22T17:23:07;24.03;;;13.33;;
8312;SDS011;4194;43.408;24.626;2023-02-22T17:28:04;31.43;;;15.93;;
8312;SDS011;4194;43.408;24.626;2023-02-22T17:30:30;40.33;;;18.33;;
8312;SDS011;4194;43.408;24.626;2023-02-22T17:32:58;28.03;;;17.33;;
8312;SDS011;4194;43.408;24.626;2023-02-22T17:35:35;36.47;;;18.97;;
8312;SDS011;4194;43.408;24.626;2023-02-22T17:38:01;38.53;;;23.10;;
8312;SDS011;4194;43.408;24.626;2023-02-22T17:40:30;32.87;;;20.60;;
8312;SDS011;4194;43.408;24.626;2023-02-22T17:42:57;22.40;;;16.80;;
8312;SDS011;4194;43.408;24.626;2023-02-22T17:45:23;36.20;;;16.63;;
8312;SDS011;4194;43.408;24.626;2023-02-22T17:47:50;28.37;;;17.40;;
8312;SDS011;4194;43.408;24.626;2023-02-22T17:50:17;31.50;;;17.10;;
8312;SDS011;4194;43.408;24.626;2023-02-22T17:52:43;34.13;;;22.13;;
8312;SDS011;4194;43.408;24.626;2023-02-22T17:55:10;32.83;;;20.30;;